sensor_id;sensor_type;location;lat;lon;timestamp;pressure;altitude;pressure_sealevel;temperature;humidity
24752;BME280;27246;52.376;4.628;2023-05-03T00:01:11;102894.50;;;8.80;60.78
24752;BME280;27246;52.376;4.628;2023-05-03T00:06:14;102893.50;;;8.81;61.31
24752;BME280;27246;52.376;4.628;2023-05-03T00:11:16;102890.50;;;8.85;60.25
24752;BME280;27246;52.376;4.628;2023-05-03T00:16:18;102885.41;;;8.80;60.66
24752;BME280;27246;52.376;4.628;2023-05-03T00:21:21;102873.78;;;8.88;60.94
24752;BME280;27246;52.376;4.628;2023-05-03T00:26:22;102874.66;;;8.88;61.21
24752;BME280;27246;52.376;4.628;2023-05-03T00:31:24;102860.41;;;8.83;60.40
24752;BME280;27246;52.376;4.628;2023-05-03T00:36:26;102882.16;;;8.86;61.27
24752;BME280;27246;52.376;4.628;2023-05-03T00:41:28;102888.50;;;8.87;61.56
24752;BME280;27246;52.376;4.628;2023-05-03T00:46:30;102883.25;;;8.84;61.87
24752;BME280;27246;52.376;4.628;2023-05-03T00:51:32;102895.00;;;8.74;62.03
24752;BME280;27246;52.376;4.628;2023-05-03T00:56:34;102896.88;;;8.74;62.40
24752;BME280;27246;52.376;4.628;2023-05-03T01:01:52;102896.63;;;8.66;62.60
24752;BME280;27246;52.376;4.628;2023-05-03T01:07:02;102889.13;;;8.68;62.88
24752;BME280;27246;52.376;4.628;2023-05-03T01:17:28;102889.63;;;8.61;62.98
24752;BME280;27246;52.376;4.628;2023-05-03T01:22:36;102890.38;;;8.64;63.18
24752;BME280;27246;52.376;4.628;2023-05-03T01:27:40;102888.34;;;8.54;63.69
24752;BME280;27246;52.376;4.628;2023-05-03T01:38:37;102871.63;;;8.57;64.15
24752;BME280;27246;52.376;4.628;2023-05-03T01:43:40;102860.22;;;8.51;64.59
24752;BME280;27246;52.376;4.628;2023-05-03T01:48:44;102853.88;;;8.50;64.26
24752;BME280;27246;52.376;4.628;2023-05-03T01:53:45;102837.72;;;8.34;65.47
24752;BME280;27246;52.376;4.628;2023-05-03T01:58:47;102824.84;;;8.24;65.00
24752;BME280;27246;52.376;4.628;2023-05-03T02:03:52;102805.84;;;8.09;65.55
24752;BME280;27246;52.376;4.628;2023-05-03T02:08:54;102808.53;;;7.98;65.90
24752;BME280;27246;52.376;4.628;2023-05-03T02:13:55;102800.47;;;8.08;66.35
24752;BME280;27246;52.376;4.628;2023-05-03T02:18:57;102802.69;;;8.02;66.24
24752;BME280;27246;52.376;4.628;2023-05-03T02:24:00;102822.91;;;8.01;65.90
24752;BME280;27246;52.376;4.628;2023-05-03T02:29:02;102828.03;;;8.06;66.64
24752;BME280;27246;52.376;4.628;2023-05-03T02:34:06;102829.16;;;8.15;66.49
24752;BME280;27246;52.376;4.628;2023-05-03T02:39:08;102839.28;;;8.14;66.07
24752;BME280;27246;52.376;4.628;2023-05-03T02:44:11;102851.03;;;8.16;65.90
24752;BME280;27246;52.376;4.628;2023-05-03T02:49:12;102850.34;;;8.01;66.88
24752;BME280;27246;52.376;4.628;2023-05-03T02:54:14;102850.94;;;7.94;66.36
24752;BME280;27246;52.376;4.628;2023-05-03T02:59:18;102857.13;;;7.85;66.81
24752;BME280;27246;52.376;4.628;2023-05-03T03:04:22;102856.44;;;7.70;67.79
24752;BME280;27246;52.376;4.628;2023-05-03T03:09:24;102866.53;;;7.69;67.67
24752;BME280;27246;52.376;4.628;2023-05-03T03:14:26;102859.81;;;7.73;67.86
24752;BME280;27246;52.376;4.628;2023-05-03T03:19:28;102867.06;;;7.74;67.64
24752;BME280;27246;52.376;4.628;2023-05-03T03:24:30;102862.94;;;7.69;67.96
24752;BME280;27246;52.376;4.628;2023-05-03T03:29:33;102856.31;;;7.71;68.02
24752;BME280;27246;52.376;4.628;2023-05-03T03:34:37;102858.19;;;7.71;68.00
24752;BME280;27246;52.376;4.628;2023-05-03T03:39:39;102855.75;;;7.55;68.20
24752;BME280;27246;52.376;4.628;2023-05-03T03:44:41;102862.00;;;7.44;68.28
24752;BME280;27246;52.376;4.628;2023-05-03T03:49:43;102864.63;;;7.46;68.77
24752;BME280;27246;52.376;4.628;2023-05-03T03:54:46;102872.22;;;7.42;68.52
24752;BME280;27246;52.376;4.628;2023-05-03T03:59:48;102884.25;;;7.39;68.62
24752;BME280;27246;52.376;4.628;2023-05-03T04:04:52;102880.44;;;7.42;69.28
24752;BME280;27246;52.376;4.628;2023-05-03T04:09:54;102884.84;;;7.45;68.55
24752;BME280;27246;52.376;4.628;2023-05-03T04:14:58;102889.09;;;7.49;68.44
24752;BME280;27246;52.376;4.628;2023-05-03T04:20:01;102888.84;;;7.52;68.43
24752;BME280;27246;52.376;4.628;2023-05-03T04:25:13;102883.16;;;7.55;67.39
24752;BME280;27246;52.376;4.628;2023-05-03T04:30:17;102875.91;;;7.54;67.28
24752;BME280;27246;52.376;4.628;2023-05-03T04:35:23;102877.69;;;7.55;66.81
24752;BME280;27246;52.376;4.628;2023-05-03T04:40:26;102889.91;;;7.62;67.33
24752;BME280;27246;52.376;4.628;2023-05-03T04:45:36;102879.50;;;7.67;67.43
24752;BME280;27246;52.376;4.628;2023-05-03T04:50:39;102884.72;;;7.70;68.21
24752;BME280;27246;52.376;4.628;2023-05-03T04:55:43;102882.06;;;7.81;68.44
24752;BME280;27246;52.376;4.628;2023-05-03T05:00:45;102886.31;;;7.86;68.22
24752;BME280;27246;52.376;4.628;2023-05-03T05:05:55;102887.63;;;7.93;68.56
24752;BME280;27246;52.376;4.628;2023-05-03T05:10:57;102891.13;;;7.95;67.92
24752;BME280;27246;52.376;4.628;2023-05-03T05:16:04;102882.91;;;7.95;68.13
24752;BME280;27246;52.376;4.628;2023-05-03T05:21:06;102892.16;;;8.05;68.81
24752;BME280;27246;52.376;4.628;2023-05-03T05:26:09;102899.97;;;8.23;68.69
24752;BME280;27246;52.376;4.628;2023-05-03T05:31:12;102901.94;;;8.20;68.12
24752;BME280;27246;52.376;4.628;2023-05-03T05:36:14;102907.72;;;8.29;68.57
24752;BME280;27246;52.376;4.628;2023-05-03T05:41:17;102910.63;;;8.38;69.36
24752;BME280;27246;52.376;4.628;2023-05-03T05:46:19;102900.78;;;8.47;70.39
24752;BME280;27246;52.376;4.628;2023-05-03T05:51:23;102892.66;;;8.34;65.54
24752;BME280;27246;52.376;4.628;2023-05-03T05:56:28;102896.88;;;8.27;65.03
24752;BME280;27246;52.376;4.628;2023-05-03T06:01:30;102899.16;;;8.45;65.43
24752;BME280;27246;52.376;4.628;2023-05-03T06:06:33;102898.78;;;8.38;63.45
24752;BME280;27246;52.376;4.628;2023-05-03T06:11:36;102909.50;;;8.30;63.51
24752;BME280;27246;52.376;4.628;2023-05-03T06:16:39;102914.50;;;8.36;61.72
24752;BME280;27246;52.376;4.628;2023-05-03T06:21:41;102917.47;;;8.33;61.07
24752;BME280;27246;52.376;4.628;2023-05-03T06:26:44;102914.78;;;8.44;60.59
24752;BME280;27246;52.376;4.628;2023-05-03T06:31:46;102907.09;;;8.25;59.93
24752;BME280;27246;52.376;4.628;2023-05-03T06:36:50;102901.09;;;8.20;60.28
24752;BME280;27246;52.376;4.628;2023-05-03T06:41:52;102887.81;;;8.49;60.94
24752;BME280;27246;52.376;4.628;2023-05-03T06:46:54;102889.47;;;8.52;61.72
24752;BME280;27246;52.376;4.628;2023-05-03T06:51:56;102890.28;;;8.41;58.43
24752;BME280;27246;52.376;4.628;2023-05-03T06:56:59;102887.19;;;8.46;57.36
24752;BME280;27246;52.376;4.628;2023-05-03T07:02:02;102889.47;;;8.63;56.79
24752;BME280;27246;52.376;4.628;2023-05-03T07:07:03;102890.72;;;8.59;56.14
24752;BME280;27246;52.376;4.628;2023-05-03T07:12:06;102875.41;;;9.01;55.66
24752;BME280;27246;52.376;4.628;2023-05-03T07:17:10;102868.03;;;9.02;54.78
24752;BME280;27246;52.376;4.628;2023-05-03T07:22:11;102861.28;;;9.06;54.37
24752;BME280;27246;52.376;4.628;2023-05-03T07:27:13;102864.13;;;9.16;53.15
24752;BME280;27246;52.376;4.628;2023-05-03T07:32:15;102865.78;;;8.96;53.39
24752;BME280;27246;52.376;4.628;2023-05-03T07:37:17;102864.66;;;8.98;53.15
24752;BME280;27246;52.376;4.628;2023-05-03T07:42:19;102851.53;;;9.36;52.65
24752;BME280;27246;52.376;4.628;2023-05-03T07:47:24;102843.03;;;9.50;51.36
24752;BME280;27246;52.376;4.628;2023-05-03T07:52:26;102845.84;;;9.71;51.22
24752;BME280;27246;52.376;4.628;2023-05-03T07:57:28;102864.59;;;9.66;50.29
24752;BME280;27246;52.376;4.628;2023-05-03T08:02:29;102867.44;;;9.87;52.84
24752;BME280;27246;52.376;4.628;2023-05-03T08:07:32;102865.50;;;9.99;49.66
24752;BME280;27246;52.376;4.628;2023-05-03T08:12:34;102861.75;;;10.00;49.23
24752;BME280;27246;52.376;4.628;2023-05-03T08:17:43;102875.75;;;10.50;49.83
24752;BME280;27246;52.376;4.628;2023-05-03T08:22:46;102875.16;;;10.68;48.27
24752;BME280;27246;52.376;4.628;2023-05-03T08:27:47;102878.78;;;10.89;48.17
24752;BME280;27246;52.376;4.628;2023-05-03T08:32:53;102869.94;;;10.44;49.15
24752;BME280;27246;52.376;4.628;2023-05-03T08:37:55;102875.53;;;10.63;48.62
24752;BME280;27246;52.376;4.628;2023-05-03T08:42:58;102887.50;;;10.73;48.87
24752;BME280;27246;52.376;4.628;2023-05-03T08:48:02;102873.25;;;11.10;48.92
24752;BME280;27246;52.376;4.628;2023-05-03T08:53:05;102868.03;;;11.67;47.96
24752;BME280;27246;52.376;4.628;2023-05-03T08:58:07;102876.88;;;11.61;47.19
24752;BME280;27246;52.376;4.628;2023-05-03T09:03:13;102872.84;;;11.65;47.76
24752;BME280;27246;52.376;4.628;2023-05-03T09:08:14;102872.25;;;11.71;46.22
24752;BME280;27246;52.376;4.628;2023-05-03T09:13:17;102865.53;;;11.64;46.97
24752;BME280;27246;52.376;4.628;2023-05-03T09:18:20;102869.00;;;11.47;47.48
24752;BME280;27246;52.376;4.628;2023-05-03T09:28:26;102875.22;;;11.39;47.29
24752;BME280;27246;52.376;4.628;2023-05-03T09:33:28;102870.06;;;11.65;46.54
24752;BME280;27246;52.376;4.628;2023-05-03T09:38:31;102875.78;;;11.93;45.88
24752;BME280;27246;52.376;4.628;2023-05-03T09:43:34;102887.69;;;12.23;45.91
24752;BME280;27246;52.376;4.628;2023-05-03T09:48:39;102867.94;;;12.17;46.19
24752;BME280;27246;52.376;4.628;2023-05-03T09:53:41;102869.09;;;12.25;46.82
24752;BME280;27246;52.376;4.628;2023-05-03T09:58:43;102865.75;;;12.60;45.63
24752;BME280;27246;52.376;4.628;2023-05-03T10:03:47;102863.34;;;12.85;46.29
24752;BME280;27246;52.376;4.628;2023-05-03T10:09:00;102870.16;;;13.00;44.96
24752;BME280;27246;52.376;4.628;2023-05-03T10:14:06;102864.78;;;12.89;46.92
24752;BME280;27246;52.376;4.628;2023-05-03T10:20:29;102867.91;;;13.13;47.09
24752;BME280;27246;52.376;4.628;2023-05-03T10:30:01;102859.25;;;13.26;46.04
24752;BME280;27246;52.376;4.628;2023-05-03T10:35:12;102849.91;;;13.27;43.83
24752;BME280;27246;52.376;4.628;2023-05-03T10:40:17;102850.84;;;13.18;45.32
24752;BME280;27246;52.376;4.628;2023-05-03T10:45:27;102831.09;;;13.03;44.85
24752;BME280;27246;52.376;4.628;2023-05-03T10:50:29;102835.06;;;13.28;44.89
24752;BME280;27246;52.376;4.628;2023-05-03T10:55:30;102839.94;;;13.44;44.39
24752;BME280;27246;52.376;4.628;2023-05-03T11:00:37;102837.81;;;13.56;44.26
24752;BME280;27246;52.376;4.628;2023-05-03T11:05:39;102821.47;;;13.35;43.81
24752;BME280;27246;52.376;4.628;2023-05-03T11:10:43;102829.47;;;13.84;43.47
24752;BME280;27246;52.376;4.628;2023-05-03T11:15:45;102823.44;;;13.88;42.73
24752;BME280;27246;52.376;4.628;2023-05-03T11:20:49;102826.00;;;14.17;43.13
24752;BME280;27246;52.376;4.628;2023-05-03T11:25:51;102829.41;;;14.55;42.18
24752;BME280;27246;52.376;4.628;2023-05-03T11:30:53;102816.50;;;14.46;41.94
24752;BME280;27246;52.376;4.628;2023-05-03T11:35:55;102810.13;;;14.28;43.50
24752;BME280;27246;52.376;4.628;2023-05-03T11:40:58;102806.94;;;14.40;42.60
24752;BME280;27246;52.376;4.628;2023-05-03T11:46:00;102787.09;;;14.53;42.13
24752;BME280;27246;52.376;4.628;2023-05-03T11:51:06;102782.28;;;14.82;41.87
24752;BME280;27246;52.376;4.628;2023-05-03T11:56:14;102775.47;;;15.18;44.44
24752;BME280;27246;52.376;4.628;2023-05-03T12:01:22;102768.28;;;14.99;41.97
24752;BME280;27246;52.376;4.628;2023-05-03T12:06:25;102760.75;;;15.26;42.37
24752;BME280;27246;52.376;4.628;2023-05-03T12:11:40;102759.16;;;15.24;41.90
24752;BME280;27246;52.376;4.628;2023-05-03T12:16:47;102762.47;;;15.19;41.08
24752;BME280;27246;52.376;4.628;2023-05-03T12:21:51;102750.91;;;14.97;41.90
24752;BME280;27246;52.376;4.628;2023-05-03T12:26:56;102742.75;;;15.38;42.80
24752;BME280;27246;52.376;4.628;2023-05-03T12:31:58;102734.50;;;15.04;41.27
24752;BME280;27246;52.376;4.628;2023-05-03T12:37:04;102734.75;;;15.44;42.83
24752;BME280;27246;52.376;4.628;2023-05-03T12:42:07;102716.31;;;15.18;43.97
24752;BME280;27246;52.376;4.628;2023-05-03T12:47:11;102710.63;;;14.85;42.50
24752;BME280;27246;52.376;4.628;2023-05-03T12:52:24;102727.94;;;15.30;42.84
24752;BME280;27246;52.376;4.628;2023-05-03T12:57:29;102737.16;;;15.30;41.70
24752;BME280;27246;52.376;4.628;2023-05-03T13:02:31;102705.22;;;15.26;41.66
24752;BME280;27246;52.376;4.628;2023-05-03T13:07:36;102713.22;;;15.37;42.33
24752;BME280;27246;52.376;4.628;2023-05-03T13:12:43;102710.78;;;15.34;45.56
24752;BME280;27246;52.376;4.628;2023-05-03T13:17:46;102702.81;;;15.48;43.23
24752;BME280;27246;52.376;4.628;2023-05-03T13:22:51;102694.47;;;15.31;40.36
24752;BME280;27246;52.376;4.628;2023-05-03T13:27:53;102683.22;;;15.49;42.66
24752;BME280;27246;52.376;4.628;2023-05-03T13:32:55;102685.47;;;15.70;40.74
24752;BME280;27246;52.376;4.628;2023-05-03T13:37:56;102674.88;;;15.66;42.32
24752;BME280;27246;52.376;4.628;2023-05-03T13:42:58;102663.75;;;15.74;42.52
24752;BME280;27246;52.376;4.628;2023-05-03T13:48:00;102647.09;;;15.66;42.18
24752;BME280;27246;52.376;4.628;2023-05-03T13:53:19;102648.13;;;15.32;40.84
24752;BME280;27246;52.376;4.628;2023-05-03T13:58:21;102639.28;;;15.20;41.36
24752;BME280;27246;52.376;4.628;2023-05-03T14:03:23;102648.81;;;15.17;40.95
24752;BME280;27246;52.376;4.628;2023-05-03T14:08:25;102623.31;;;15.22;41.09
24752;BME280;27246;52.376;4.628;2023-05-03T14:13:27;102622.91;;;14.92;41.26
24752;BME280;27246;52.376;4.628;2023-05-03T14:18:38;102614.44;;;15.02;42.16
24752;BME280;27246;52.376;4.628;2023-05-03T14:23:45;102622.22;;;14.90;40.60
24752;BME280;27246;52.376;4.628;2023-05-03T14:28:47;102601.06;;;15.06;40.45
24752;BME280;27246;52.376;4.628;2023-05-03T14:33:50;102599.19;;;15.14;39.86
24752;BME280;27246;52.376;4.628;2023-05-03T14:38:52;102603.16;;;15.04;40.49
24752;BME280;27246;52.376;4.628;2023-05-03T14:43:54;102593.97;;;15.03;40.98
24752;BME280;27246;52.376;4.628;2023-05-03T14:48:56;102590.81;;;14.82;40.89
24752;BME280;27246;52.376;4.628;2023-05-03T14:53:58;102567.75;;;14.97;40.94
24752;BME280;27246;52.376;4.628;2023-05-03T14:59:00;102568.13;;;15.11;40.51
24752;BME280;27246;52.376;4.628;2023-05-03T15:04:02;102562.56;;;14.86;40.71
24752;BME280;27246;52.376;4.628;2023-05-03T15:09:08;102564.66;;;14.92;40.78
24752;BME280;27246;52.376;4.628;2023-05-03T15:14:12;102548.88;;;15.17;40.85
24752;BME280;27246;52.376;4.628;2023-05-03T15:19:14;102543.13;;;15.19;40.88
24752;BME280;27246;52.376;4.628;2023-05-03T15:24:16;102535.00;;;15.01;40.72
24752;BME280;27246;52.376;4.628;2023-05-03T15:29:19;102526.84;;;15.32;42.29
24752;BME280;27246;52.376;4.628;2023-05-03T15:34:22;102532.03;;;15.27;39.81
24752;BME280;27246;52.376;4.628;2023-05-03T15:39:23;102545.38;;;15.07;40.52
24752;BME280;27246;52.376;4.628;2023-05-03T15:44:25;102551.09;;;14.81;40.93
24752;BME280;27246;52.376;4.628;2023-05-03T15:49:27;102540.22;;;15.04;40.61
24752;BME280;27246;52.376;4.628;2023-05-03T15:54:29;102532.72;;;14.80;42.20
24752;BME280;27246;52.376;4.628;2023-05-03T15:59:30;102526.66;;;14.85;41.24
24752;BME280;27246;52.376;4.628;2023-05-03T16:04:33;102529.25;;;14.86;41.43
24752;BME280;27246;52.376;4.628;2023-05-03T16:09:37;102516.34;;;14.60;41.62
24752;BME280;27246;52.376;4.628;2023-05-03T16:14:39;102509.78;;;14.53;42.51
24752;BME280;27246;52.376;4.628;2023-05-03T16:19:43;102506.25;;;14.35;42.91
24752;BME280;27246;52.376;4.628;2023-05-03T16:24:45;102510.53;;;14.13;44.18
24752;BME280;27246;52.376;4.628;2023-05-03T16:29:47;102498.97;;;14.34;43.82
24752;BME280;27246;52.376;4.628;2023-05-03T16:34:51;102496.66;;;14.88;43.46
24752;BME280;27246;52.376;4.628;2023-05-03T16:39:53;102501.84;;;14.75;42.57
24752;BME280;27246;52.376;4.628;2023-05-03T16:44:56;102503.66;;;14.33;43.46
24752;BME280;27246;52.376;4.628;2023-05-03T16:50:01;102495.78;;;14.12;44.86
24752;BME280;27246;52.376;4.628;2023-05-03T16:55:03;102488.53;;;14.19;46.74
24752;BME280;27246;52.376;4.628;2023-05-03T17:00:07;102490.19;;;13.96;45.99
24752;BME280;27246;52.376;4.628;2023-05-03T17:05:11;102489.13;;;13.89;46.84
24752;BME280;27246;52.376;4.628;2023-05-03T17:10:14;102478.75;;;13.91;48.01
24752;BME280;27246;52.376;4.628;2023-05-03T17:19:12;102484.56;;;13.53;49.29
24752;BME280;27246;52.376;4.628;2023-05-03T17:24:14;102479.16;;;13.44;49.46
24752;BME280;27246;52.376;4.628;2023-05-03T17:29:16;102479.50;;;13.14;50.58
24752;BME280;27246;52.376;4.628;2023-05-03T17:34:17;102480.94;;;13.00;51.00
24752;BME280;27246;52.376;4.628;2023-05-03T17:39:23;102481.94;;;12.99;51.26
24752;BME280;27246;52.376;4.628;2023-05-03T17:44:25;102484.66;;;12.91;51.18
24752;BME280;27246;52.376;4.628;2023-05-03T17:49:27;102485.06;;;12.78;52.16
24752;BME280;27246;52.376;4.628;2023-05-03T17:54:31;102473.63;;;12.55;53.11
24752;BME280;27246;52.376;4.628;2023-05-03T17:59:33;102476.28;;;12.65;53.10
24752;BME280;27246;52.376;4.628;2023-05-03T18:04:34;102467.47;;;12.62;53.68
24752;BME280;27246;52.376;4.628;2023-05-03T18:09:36;102470.44;;;12.86;53.31
24752;BME280;27246;52.376;4.628;2023-05-03T18:14:38;102479.16;;;12.55;54.10
24752;BME280;27246;52.376;4.628;2023-05-03T18:19:42;102475.28;;;12.84;54.01
24752;BME280;27246;52.376;4.628;2023-05-03T18:24:45;102468.56;;;12.69;53.87
24752;BME280;27246;52.376;4.628;2023-05-03T18:29:47;102468.34;;;12.62;54.43
24752;BME280;27246;52.376;4.628;2023-05-03T18:34:49;102476.00;;;12.50;55.37
24752;BME280;27246;52.376;4.628;2023-05-03T18:39:51;102476.47;;;12.64;55.14
24752;BME280;27246;52.376;4.628;2023-05-03T18:44:53;102472.34;;;12.32;55.04
24752;BME280;27246;52.376;4.628;2023-05-03T18:49:55;102473.88;;;12.16;55.55
24752;BME280;27246;52.376;4.628;2023-05-03T18:54:57;102470.81;;;12.19;55.66
24752;BME280;27246;52.376;4.628;2023-05-03T18:59:58;102472.50;;;12.02;56.47
24752;BME280;27246;52.376;4.628;2023-05-03T19:05:02;102462.50;;;12.29;56.55
24752;BME280;27246;52.376;4.628;2023-05-03T19:10:04;102469.06;;;12.18;56.32
24752;BME280;27246;52.376;4.628;2023-05-03T19:15:07;102461.81;;;11.90;57.32
24752;BME280;27246;52.376;4.628;2023-05-03T19:20:09;102464.91;;;11.49;59.26
24752;BME280;27246;52.376;4.628;2023-05-03T19:25:12;102457.94;;;11.55;59.48
24752;BME280;27246;52.376;4.628;2023-05-03T19:30:15;102457.69;;;11.48;60.51
24752;BME280;27246;52.376;4.628;2023-05-03T19:35:17;102453.03;;;11.49;60.49
24752;BME280;27246;52.376;4.628;2023-05-03T19:40:18;102459.13;;;11.52;60.78
24752;BME280;27246;52.376;4.628;2023-05-03T19:45:22;102468.16;;;11.35;61.98
24752;BME280;27246;52.376;4.628;2023-05-03T19:50:24;102465.63;;;11.51;61.61
24752;BME280;27246;52.376;4.628;2023-05-03T19:55:26;102458.00;;;11.35;62.45
24752;BME280;27246;52.376;4.628;2023-05-03T20:00:27;102473.44;;;11.18;62.66
24752;BME280;27246;52.376;4.628;2023-05-03T20:05:30;102457.97;;;10.98;63.35
24752;BME280;27246;52.376;4.628;2023-05-03T20:10:32;102454.56;;;11.14;63.92
24752;BME280;27246;52.376;4.628;2023-05-03T20:15:36;102464.31;;;11.18;63.06
24752;BME280;27246;52.376;4.628;2023-05-03T20:20:38;102468.66;;;11.11;64.02
24752;BME280;27246;52.376;4.628;2023-05-03T20:25:40;102459.81;;;10.97;64.50
24752;BME280;27246;52.376;4.628;2023-05-03T20:30:42;102457.97;;;10.98;64.54
24752;BME280;27246;52.376;4.628;2023-05-03T20:35:43;102462.00;;;10.84;65.02
24752;BME280;27246;52.376;4.628;2023-05-03T20:40:45;102450.84;;;10.76;65.39
24752;BME280;27246;52.376;4.628;2023-05-03T20:45:47;102446.47;;;10.83;64.85
24752;BME280;27246;52.376;4.628;2023-05-03T20:50:49;102444.75;;;10.53;65.71
24752;BME280;27246;52.376;4.628;2023-05-03T20:55:54;102442.88;;;10.53;65.79
24752;BME280;27246;52.376;4.628;2023-05-03T21:00:57;102442.88;;;10.44;65.97
24752;BME280;27246;52.376;4.628;2023-05-03T21:05:58;102434.31;;;10.56;64.74
24752;BME280;27246;52.376;4.628;2023-05-03T21:11:00;102429.66;;;10.47;64.58
24752;BME280;27246;52.376;4.628;2023-05-03T21:16:03;102436.34;;;10.54;64.67
24752;BME280;27246;52.376;4.628;2023-05-03T21:21:04;102436.34;;;10.54;64.34
24752;BME280;27246;52.376;4.628;2023-05-03T21:26:06;102437.66;;;10.50;64.18
24752;BME280;27246;52.376;4.628;2023-05-03T21:31:08;102438.94;;;10.27;65.50
24752;BME280;27246;52.376;4.628;2023-05-03T21:36:11;102427.34;;;10.13;65.89
24752;BME280;27246;52.376;4.628;2023-05-03T21:41:13;102416.03;;;10.16;66.19
24752;BME280;27246;52.376;4.628;2023-05-03T21:46:14;102421.09;;;10.01;67.26
24752;BME280;27246;52.376;4.628;2023-05-03T21:51:20;102413.13;;;10.08;67.14
24752;BME280;27246;52.376;4.628;2023-05-03T21:56:22;102406.31;;;9.93;67.75
24752;BME280;27246;52.376;4.628;2023-05-03T22:01:24;102393.97;;;9.77;68.61
24752;BME280;27246;52.376;4.628;2023-05-03T22:06:26;102398.00;;;9.73;69.09
24752;BME280;27246;52.376;4.628;2023-05-03T22:11:27;102393.97;;;9.77;68.99
24752;BME280;27246;52.376;4.628;2023-05-03T22:16:29;102395.13;;;9.75;68.75
24752;BME280;27246;52.376;4.628;2023-05-03T22:21:31;102386.84;;;9.65;69.03
24752;BME280;27246;52.376;4.628;2023-05-03T22:26:33;102385.41;;;9.71;69.54
24752;BME280;27246;52.376;4.628;2023-05-03T22:31:34;102386.38;;;9.60;69.58
24752;BME280;27246;52.376;4.628;2023-05-03T22:36:37;102387.53;;;9.57;69.30
24752;BME280;27246;52.376;4.628;2023-05-03T22:41:38;102384.44;;;9.41;70.26
24752;BME280;27246;52.376;4.628;2023-05-03T22:46:40;102381.56;;;9.43;70.17
24752;BME280;27246;52.376;4.628;2023-05-03T22:51:44;102379.56;;;9.54;70.47
24752;BME280;27246;52.376;4.628;2023-05-03T22:56:46;102372.75;;;9.49;69.92
24752;BME280;27246;52.376;4.628;2023-05-03T23:01:48;102366.91;;;9.42;70.20
24752;BME280;27246;52.376;4.628;2023-05-03T23:06:52;102373.88;;;9.36;70.83
24752;BME280;27246;52.376;4.628;2023-05-03T23:11:53;102358.44;;;9.24;71.74
24752;BME280;27246;52.376;4.628;2023-05-03T23:16:57;102360.16;;;9.25;71.69
24752;BME280;27246;52.376;4.628;2023-05-03T23:21:58;102345.53;;;9.15;71.60
24752;BME280;27246;52.376;4.628;2023-05-03T23:27:00;102345.06;;;9.10;71.07
24752;BME280;27246;52.376;4.628;2023-05-03T23:32:02;102336.25;;;9.16;70.94
24752;BME280;27246;52.376;4.628;2023-05-03T23:37:05;102331.59;;;9.07;70.87
24752;BME280;27246;52.376;4.628;2023-05-03T23:42:06;102336.53;;;9.13;70.02
24752;BME280;27246;52.376;4.628;2023-05-03T23:47:08;102327.94;;;8.96;70.23
24752;BME280;27246;52.376;4.628;2023-05-03T23:52:10;102336.38;;;9.05;70.09
24752;BME280;27246;52.376;4.628;2023-05-03T23:57:12;102330.50;;;8.88;70.73
